createdAt,value
2019-04-26T00:00:54.432Z,13.55
2019-04-26T00:03:29.925Z,13.80
2019-04-26T00:06:01.657Z,14.28
2019-04-26T00:08:32.514Z,14.18
2019-04-26T00:11:04.690Z,13.53
2019-04-26T00:13:37.124Z,14.05
2019-04-26T00:16:16.787Z,13.55
2019-04-26T00:18:47.726Z,14.07
2019-04-26T00:21:18.558Z,12.30
2019-04-26T00:23:49.781Z,13.05
2019-04-26T00:26:21.808Z,11.08
2019-04-26T00:28:52.660Z,11.45
2019-04-26T00:31:23.577Z,11.90
2019-04-26T00:34:15.397Z,12.13
2019-04-26T00:36:46.302Z,12.00
2019-04-26T00:39:18.140Z,11.38
2019-04-26T00:41:49.248Z,11.57
2019-04-26T00:44:20.913Z,11.63
2019-04-26T00:46:54.548Z,11.57
2019-04-26T00:49:25.976Z,11.90
2019-04-26T00:51:56.940Z,12.13
2019-04-26T00:54:28.353Z,11.78
2019-04-26T00:56:59.530Z,11.60
2019-04-26T00:59:31.198Z,12.03
2019-04-26T01:02:03.498Z,11.38
2019-04-26T01:04:34.197Z,10.75
2019-04-26T01:07:05.735Z,11.08
2019-04-26T01:09:36.610Z,12.03
2019-04-26T01:12:07.375Z,11.57
2019-04-26T01:14:37.976Z,11.35
2019-04-26T01:17:08.795Z,12.28
2019-04-26T01:19:41.916Z,11.18
2019-04-26T01:22:15.385Z,11.15
2019-04-26T01:24:48.714Z,11.15
2019-04-26T01:27:23.332Z,11.55
2019-04-26T01:29:56.691Z,12.23
2019-04-26T01:32:28.924Z,11.95
2019-04-26T01:34:59.879Z,11.88
2019-04-26T01:37:31.582Z,11.68
2019-04-26T01:40:06.559Z,11.78
2019-04-26T01:42:41.065Z,12.28
2019-04-26T01:45:20.188Z,12.37
2019-04-26T01:48:11.895Z,12.73
2019-04-26T01:50:42.727Z,13.13
2019-04-26T01:53:13.551Z,12.40
2019-04-26T01:55:44.388Z,12.43
2019-04-26T01:58:15.407Z,13.25
2019-04-26T02:00:56.702Z,13.18
2019-04-26T02:03:29.793Z,12.75
2019-04-26T02:06:00.935Z,12.63
2019-04-26T02:08:32.491Z,12.88
2019-04-26T02:11:03.580Z,12.28
2019-04-26T02:13:34.369Z,12.40
2019-04-26T02:16:05.028Z,13.00
2019-04-26T02:18:36.115Z,13.58
2019-04-26T02:21:27.974Z,13.20
2019-04-26T02:24:06.570Z,13.00
2019-04-26T02:26:42.258Z,12.82
2019-04-26T02:29:21.743Z,13.05
2019-04-26T02:31:54.750Z,12.90
2019-04-26T02:34:28.980Z,12.05
2019-04-26T02:37:01.084Z,12.95
2019-04-26T02:39:35.398Z,13.13
2019-04-26T02:42:09.135Z,14.58
2019-04-26T02:44:59.931Z,13.35
2019-04-26T02:47:39.388Z,12.95
2019-04-26T02:50:19.541Z,13.48
2019-04-26T02:52:58.438Z,13.48
2019-04-26T02:55:50.135Z,12.25
2019-04-26T02:58:23.029Z,14.45
2019-04-26T03:00:55.075Z,14.98
2019-04-26T03:03:29.802Z,17.77
2019-04-26T03:06:00.875Z,14.15
2019-04-26T03:08:39.300Z,14.87
2019-04-26T03:11:16.882Z,14.25
2019-04-26T03:13:48.772Z,13.68
2019-04-26T03:16:36.803Z,14.50
2019-04-26T03:19:17.132Z,13.60
2019-04-26T03:22:25.321Z,13.00
2019-04-26T03:25:04.302Z,13.72
2019-04-26T03:27:46.811Z,14.58
2019-04-26T03:30:23.788Z,14.20
2019-04-26T03:33:03.221Z,14.20
2019-04-26T03:35:57.224Z,11.90
2019-04-26T03:38:36.188Z,12.00
2019-04-26T03:41:27.566Z,12.85
2019-04-26T03:44:00.857Z,12.65
2019-04-26T03:46:35.502Z,13.03
2019-04-26T03:49:26.700Z,12.73
2019-04-26T03:52:14.786Z,11.43
2019-04-26T03:54:48.160Z,11.53
2019-04-26T03:57:31.316Z,12.95
2019-04-26T04:00:11.959Z,11.97
2019-04-26T04:05:41.958Z,12.40
2019-04-26T04:08:15.115Z,11.03
2019-04-26T04:10:57.639Z,11.78
2019-04-26T04:13:46.712Z,11.55
2019-04-26T04:16:42.870Z,11.22
2019-04-26T04:19:22.407Z,11.30
2019-04-26T04:22:19.726Z,11.08
2019-04-26T04:24:53.022Z,11.85
2019-04-26T04:27:35.457Z,12.30
2019-04-26T04:30:29.539Z,11.00
2019-04-26T04:33:27.436Z,11.70
2019-04-26T04:36:00.549Z,12.35
2019-04-26T04:38:53.360Z,13.28
2019-04-26T04:41:41.069Z,11.65
2019-04-26T04:44:21.809Z,12.45
2019-04-26T04:47:30.686Z,13.08
2019-04-26T04:50:26.813Z,12.73
2019-04-26T04:53:08.911Z,12.50
2019-04-26T04:56:14.929Z,12.47
2019-04-26T04:58:56.913Z,12.68
2019-04-26T05:01:53.974Z,11.80
2019-04-26T05:04:28.368Z,12.47
2019-04-26T05:07:29.458Z,12.63
2019-04-26T05:10:11.223Z,12.65
2019-04-26T05:12:50.203Z,12.78
2019-04-26T05:15:37.005Z,12.98
2019-04-26T05:18:25.661Z,12.03
2019-04-26T05:20:58.780Z,13.13
2019-04-26T05:23:32.867Z,13.53
2019-04-26T05:26:53.570Z,13.48
2019-04-26T05:29:49.927Z,12.70
2019-04-26T05:35:26.828Z,12.35
2019-04-26T05:38:17.951Z,11.95
2019-04-26T05:41:02.038Z,12.30
2019-04-26T05:43:42.600Z,12.65
2019-04-26T05:46:26.450Z,13.18
2019-04-26T05:49:22.195Z,12.60
2019-04-26T05:52:06.073Z,13.00
2019-04-26T05:54:52.246Z,12.80
2019-04-26T05:57:41.914Z,12.20
2019-04-26T06:00:18.847Z,12.03
2019-04-26T06:03:05.246Z,11.63
2019-04-26T06:06:05.367Z,12.23
2019-04-26T06:09:15.466Z,12.00
2019-04-26T06:11:56.444Z,12.93
2019-04-26T06:15:07.312Z,12.15
2019-04-26T06:17:42.054Z,13.35
2019-04-26T06:20:24.586Z,12.75
2019-04-26T06:23:06.106Z,13.15
2019-04-26T06:25:55.602Z,12.93
2019-04-26T06:28:27.703Z,13.80
2019-04-26T06:31:01.383Z,13.30
2019-04-26T06:33:46.788Z,13.18
2019-04-26T06:36:22.063Z,13.65
2019-04-26T06:42:11.086Z,13.13
2019-04-26T06:45:23.760Z,14.03
2019-04-26T06:48:07.130Z,14.20
2019-04-26T06:50:41.799Z,14.65
2019-04-26T06:53:39.508Z,13.97
2019-04-26T06:56:14.236Z,15.90
2019-04-26T06:59:19.656Z,15.38
2019-04-26T07:01:59.172Z,17.05
2019-04-26T07:04:38.971Z,16.00
2019-04-26T07:07:30.403Z,15.93
2019-04-26T07:10:04.356Z,16.12
2019-04-26T07:12:53.736Z,14.93
2019-04-26T07:15:45.308Z,16.27
2019-04-26T07:18:31.093Z,16.73
2019-04-26T07:23:59.569Z,16.17
2019-04-26T07:26:52.095Z,16.07
2019-04-26T07:29:49.618Z,15.88
2019-04-26T07:32:51.804Z,15.88
2019-04-26T07:35:45.917Z,16.05
2019-04-26T07:38:54.470Z,15.85
2019-04-26T07:41:45.520Z,15.80
2019-04-26T07:44:38.143Z,14.35
2019-04-26T07:47:29.374Z,14.43
2019-04-26T07:50:19.297Z,14.43
2019-04-26T07:53:24.447Z,13.65
2019-04-26T07:56:13.519Z,14.70
2019-04-26T07:58:55.640Z,14.10
2019-04-26T08:01:36.470Z,13.08
2019-04-26T08:04:11.529Z,12.60
2019-04-26T08:06:52.503Z,16.10
2019-04-26T08:09:27.460Z,13.30
2019-04-26T08:12:06.487Z,14.13
2019-04-26T08:14:43.702Z,13.22
2019-04-26T08:17:27.375Z,14.10
2019-04-26T08:20:42.381Z,13.48
2019-04-26T08:23:37.319Z,13.75
2019-04-26T08:25:50.613Z,14.03
2019-04-26T08:28:23.631Z,13.58
2019-04-26T08:30:56.732Z,13.10
2019-04-26T08:33:31.493Z,13.98
2019-04-26T08:36:04.811Z,14.78
2019-04-26T08:38:37.754Z,13.98
2019-04-26T08:41:09.907Z,15.25
2019-04-26T08:43:43.146Z,14.28
2019-04-26T08:46:20.305Z,14.85
2019-04-26T08:48:53.067Z,13.95
2019-04-26T08:51:26.043Z,14.25
2019-04-26T08:53:59.144Z,13.98
2019-04-26T08:56:35.499Z,15.18
2019-04-26T08:59:27.116Z,13.90
2019-04-26T09:02:10.439Z,13.38
2019-04-26T09:04:57.431Z,14.70
2019-04-26T09:07:36.375Z,14.07
2019-04-26T09:10:11.327Z,14.60
2019-04-26T09:12:43.844Z,14.30
2019-04-26T09:15:17.069Z,14.38
2019-04-26T09:17:47.711Z,15.23
2019-04-26T09:20:28.216Z,15.13
2019-04-26T09:22:56.202Z,16.12
2019-04-26T09:25:39.327Z,14.87
2019-04-26T09:28:21.114Z,15.55
2019-04-26T09:30:56.133Z,15.20
2019-04-26T09:33:36.048Z,14.70
2019-04-26T09:36:06.963Z,15.18
2019-04-26T09:38:37.932Z,16.00
2019-04-26T09:41:08.620Z,15.40
2019-04-26T09:43:41.085Z,15.83
2019-04-26T09:46:38.532Z,15.65
2019-04-26T09:49:10.968Z,15.60
2019-04-26T09:51:42.379Z,16.05
2019-04-26T09:54:15.322Z,16.48
2019-04-26T09:56:45.626Z,15.40
2019-04-26T09:59:16.418Z,15.90
2019-04-26T10:01:47.147Z,15.90
2019-04-26T10:04:18.036Z,15.18
2019-04-26T10:06:48.726Z,14.70
2019-04-26T10:09:21.267Z,15.13
2019-04-26T10:11:56.607Z,14.87
2019-04-26T10:14:38.143Z,15.38
2019-04-26T10:17:11.562Z,15.70
2019-04-26T10:19:55.994Z,15.18
2019-04-26T10:22:28.329Z,13.98
2019-04-26T10:25:02.508Z,15.70
2019-04-26T10:30:11.456Z,14.35
2019-04-26T10:32:42.280Z,15.45
2019-04-26T10:35:13.189Z,14.80
2019-04-26T10:37:47.660Z,14.80
2019-04-26T10:40:16.195Z,14.80
2019-04-26T10:42:49.438Z,14.95
2019-04-26T10:45:20.893Z,14.73
2019-04-26T10:47:51.684Z,14.90
2019-04-26T10:50:28.680Z,14.50
2019-04-26T10:53:00.878Z,14.15
2019-04-26T10:55:39.307Z,14.58
2019-04-26T10:58:11.440Z,15.00
2019-04-26T11:00:44.135Z,14.53
2019-04-26T11:03:15.180Z,14.70
2019-04-26T11:05:49.244Z,14.07
2019-04-26T11:08:18.172Z,13.83
2019-04-26T11:11:09.015Z,14.90
2019-04-26T11:13:40.015Z,14.55
2019-04-26T11:16:10.780Z,13.15
2019-04-26T11:18:41.479Z,13.78
2019-04-26T11:21:12.396Z,13.58
2019-04-26T11:24:02.251Z,13.00
2019-04-26T11:26:35.969Z,13.50
2019-04-26T11:29:07.030Z,13.78
2019-04-26T11:31:37.789Z,13.70
2019-04-26T11:34:08.261Z,13.48
2019-04-26T11:36:41.693Z,13.13
2019-04-26T11:39:13.235Z,12.75
2019-04-26T11:42:04.168Z,12.73
2019-04-26T11:44:34.731Z,11.30
2019-04-26T11:47:07.810Z,11.35
2019-04-26T11:49:41.449Z,11.63
2019-04-26T11:52:32.212Z,11.78
2019-04-26T11:55:03.824Z,13.93
2019-04-26T11:57:34.727Z,13.03
2019-04-26T12:00:06.961Z,12.68
2019-04-26T12:02:39.676Z,11.08
2019-04-26T12:05:28.899Z,12.90
2019-04-26T12:08:01.231Z,12.13
2019-04-26T12:10:32.249Z,11.88
2019-04-26T12:13:05.858Z,11.65
2019-04-26T12:15:38.996Z,11.70
2019-04-26T12:18:09.898Z,11.63
2019-04-26T12:20:40.059Z,12.15
2019-04-26T12:23:13.540Z,21.42
2019-04-26T12:25:43.661Z,22.80
2019-04-26T12:28:15.281Z,49.42
2019-04-26T12:30:45.940Z,60.67
2019-04-26T12:36:09.492Z,86.50
2019-04-26T12:38:38.332Z,82.85
2019-04-26T12:41:11.383Z,76.85
2019-04-26T12:43:40.715Z,54.53
2019-04-26T12:46:22.541Z,38.63
2019-04-26T12:48:51.407Z,28.98
2019-04-26T12:51:22.212Z,26.23
2019-04-26T12:53:53.002Z,24.18
2019-04-26T12:56:26.669Z,22.98
2019-04-26T12:58:55.843Z,21.82
2019-04-26T13:01:26.480Z,20.60
2019-04-26T13:04:07.351Z,19.67
2019-04-26T13:06:39.823Z,18.35
2019-04-26T13:09:21.819Z,17.42
2019-04-26T13:11:59.621Z,16.93
2019-04-26T13:17:51.627Z,17.10
2019-04-26T13:20:24.258Z,17.02
2019-04-26T13:22:55.871Z,17.70
2019-04-26T13:25:30.448Z,16.77
2019-04-26T13:27:59.038Z,17.67
2019-04-26T13:30:32.926Z,17.35
2019-04-26T13:33:02.185Z,16.97
2019-04-26T13:35:32.892Z,18.30
2019-04-26T13:38:05.145Z,18.27
2019-04-26T13:40:35.959Z,18.23
2019-04-26T13:43:07.905Z,18.17
2019-04-26T13:45:40.147Z,17.98
2019-04-26T13:48:49.392Z,17.42
2019-04-26T13:51:21.487Z,19.65
2019-04-26T13:53:54.282Z,19.40
2019-04-26T13:56:43.581Z,20.40
2019-04-26T13:59:14.521Z,20.20
2019-04-26T14:01:45.145Z,21.25
2019-04-26T14:04:15.712Z,19.98
2019-04-26T14:06:46.356Z,20.55
2019-04-26T14:09:16.892Z,18.75
2019-04-26T14:11:47.619Z,20.12
2019-04-26T14:14:18.247Z,19.23
2019-04-26T14:16:51.997Z,16.27
2019-04-26T14:19:21.566Z,14.90
2019-04-26T14:21:52.890Z,13.55
2019-04-26T14:24:25.217Z,13.45
2019-04-26T14:26:57.602Z,12.82
2019-04-26T14:29:32.120Z,12.68
2019-04-26T14:32:01.176Z,12.85
2019-04-26T14:34:31.872Z,11.95
2019-04-26T14:37:06.752Z,11.65
2019-04-26T14:39:49.550Z,11.68
2019-04-26T14:42:07.766Z,11.65
2019-04-26T14:44:48.926Z,12.10
2019-04-26T14:47:14.734Z,11.85
2019-04-26T14:49:43.199Z,11.28
2019-04-26T14:52:14.404Z,12.25
2019-04-26T14:54:47.546Z,11.68
2019-04-26T14:57:25.790Z,11.48
2019-04-26T14:59:52.752Z,11.90
2019-04-26T15:02:47.158Z,11.43
2019-04-26T15:05:22.991Z,11.73
2019-04-26T15:07:53.922Z,11.60
2019-04-26T15:10:26.091Z,12.35
2019-04-26T15:13:11.491Z,12.35
2019-04-26T15:15:32.110Z,13.38
2019-04-26T15:18:02.869Z,12.82
2019-04-26T15:20:33.706Z,12.10
2019-04-26T15:23:04.464Z,11.43
2019-04-26T15:25:36.782Z,12.13
2019-04-26T15:28:11.999Z,12.05
2019-04-26T15:30:46.283Z,12.55
2019-04-26T15:33:13.843Z,11.93
2019-04-26T15:35:45.132Z,11.93
2019-04-26T15:38:15.847Z,12.05
2019-04-26T15:41:04.438Z,12.15
2019-04-26T15:46:50.245Z,10.75
2019-04-26T15:49:29.769Z,11.05
2019-04-26T15:52:00.843Z,11.40
2019-04-26T15:54:32.386Z,10.55
2019-04-26T15:57:06.253Z,11.05
2019-04-26T15:59:35.672Z,10.58
2019-04-26T16:02:06.444Z,10.23
2019-04-26T16:04:37.181Z,10.25
2019-04-26T16:07:08.039Z,10.70
2019-04-26T16:09:40.071Z,11.22
2019-04-26T16:12:10.859Z,10.00
2019-04-26T16:14:42.242Z,10.78
2019-04-26T16:17:13.006Z,10.68
2019-04-26T16:19:43.678Z,11.28
2019-04-26T16:22:14.622Z,10.72
2019-04-26T16:24:45.316Z,11.35
2019-04-26T16:27:16.024Z,10.58
2019-04-26T16:30:00.675Z,11.75
2019-04-26T16:32:47.317Z,10.85
2019-04-26T16:35:18.159Z,11.53
2019-04-26T16:37:51.818Z,11.12
2019-04-26T16:40:25.698Z,11.78
2019-04-26T16:42:57.072Z,10.82
2019-04-26T16:45:26.915Z,10.43
2019-04-26T16:47:57.480Z,10.75
2019-04-26T16:50:31.590Z,11.55
2019-04-26T16:53:00.503Z,10.75
2019-04-26T16:55:38.052Z,10.43
2019-04-26T16:58:04.449Z,10.68
2019-04-26T17:00:50.254Z,11.00
2019-04-26T17:03:08.132Z,10.78
2019-04-26T17:05:47.502Z,10.60
2019-04-26T17:08:12.821Z,10.40
2019-04-26T17:10:43.455Z,10.18
2019-04-26T17:13:14.447Z,10.45
2019-04-26T17:15:46.507Z,10.25
2019-04-26T17:18:19.401Z,9.90
2019-04-26T17:20:49.465Z,10.45
2019-04-26T17:23:37.976Z,10.18
2019-04-26T17:26:29.344Z,10.43
2019-04-26T17:29:02.270Z,10.32
2019-04-26T17:31:33.623Z,10.20
2019-04-26T17:34:05.265Z,10.55
2019-04-26T17:36:36.781Z,10.10
2019-04-26T17:39:11.048Z,10.13
2019-04-26T17:41:43.262Z,9.95
2019-04-26T17:44:14.180Z,10.63
2019-04-26T17:46:48.974Z,10.58
2019-04-26T17:49:21.454Z,9.80
2019-04-26T17:51:53.148Z,10.38
2019-04-26T17:54:41.387Z,10.93
2019-04-26T17:56:55.123Z,10.70
2019-04-26T17:59:33.349Z,11.18
2019-04-26T18:02:01.184Z,10.50
2019-04-26T18:04:36.141Z,10.80
2019-04-26T18:07:10.910Z,10.30
2019-04-26T18:09:44.002Z,10.58
2019-04-26T18:12:07.436Z,10.60
2019-04-26T18:14:37.948Z,10.23
2019-04-26T18:17:10.261Z,11.05
2019-04-26T18:19:42.107Z,11.38
2019-04-26T18:22:14.709Z,11.85
2019-04-26T18:24:45.953Z,11.10
2019-04-26T18:27:16.756Z,11.48
2019-04-26T18:29:47.450Z,10.53
2019-04-26T18:32:18.341Z,10.38
2019-04-26T18:34:49.039Z,10.23
2019-04-26T18:37:20.265Z,11.50
2019-04-26T18:39:51.146Z,10.40
2019-04-26T18:42:21.833Z,10.55
2019-04-26T18:44:53.980Z,10.35
2019-04-26T18:47:29.330Z,10.35
2019-04-26T18:50:00.105Z,10.40
2019-04-26T18:52:33.034Z,10.55
2019-04-26T18:55:05.752Z,11.45
2019-04-26T18:57:36.859Z,10.63
2019-04-26T19:00:10.258Z,10.48
2019-04-26T19:02:42.829Z,10.55
2019-04-26T19:05:15.592Z,10.50
2019-04-26T19:07:46.203Z,10.45
2019-04-26T19:10:18.088Z,10.35
2019-04-26T19:12:49.955Z,10.38
2019-04-26T19:15:41.641Z,10.60
2019-04-26T19:18:22.032Z,10.30
2019-04-26T19:21:06.921Z,10.68
2019-04-26T19:23:37.705Z,10.18
2019-04-26T19:26:09.478Z,11.80
2019-04-26T19:28:43.131Z,10.60
2019-04-26T19:31:12.932Z,10.00
2019-04-26T19:33:43.616Z,10.55
2019-04-26T19:36:17.772Z,10.15
2019-04-26T19:38:49.799Z,10.48
2019-04-26T19:41:21.545Z,10.20
2019-04-26T19:43:52.141Z,10.72
2019-04-26T19:46:25.356Z,11.22
2019-04-26T19:49:14.480Z,18.45
2019-04-26T19:52:03.819Z,22.80
2019-04-26T19:54:41.793Z,22.98
2019-04-26T19:57:26.454Z,22.73
2019-04-26T19:59:57.388Z,23.30
2019-04-26T20:02:35.821Z,22.13
2019-04-26T20:05:02.389Z,22.37
2019-04-26T20:07:33.358Z,21.87
2019-04-26T20:10:05.128Z,21.90
2019-04-26T20:12:38.117Z,21.75
2019-04-26T20:15:12.610Z,21.57
2019-04-26T20:17:42.017Z,21.45
2019-04-26T20:20:35.977Z,20.75
2019-04-26T20:23:07.855Z,21.30
2019-04-26T20:25:37.561Z,20.10
2019-04-26T20:28:08.343Z,20.50
2019-04-26T20:30:57.899Z,19.67
2019-04-26T20:33:31.321Z,20.52
2019-04-26T20:36:04.563Z,20.72
2019-04-26T20:38:53.597Z,22.58
2019-04-26T20:41:25.210Z,21.42
2019-04-26T20:44:04.952Z,21.62
2019-04-26T20:46:29.769Z,21.82
2019-04-26T20:49:01.463Z,22.25
2019-04-26T20:51:32.872Z,21.17
2019-04-26T20:54:03.870Z,21.85
2019-04-26T20:56:34.687Z,21.50
2019-04-26T20:59:05.609Z,20.77
2019-04-26T21:04:36.883Z,20.82
2019-04-26T21:06:59.255Z,21.30
2019-04-26T21:09:30.180Z,20.50
2019-04-26T21:12:01.890Z,20.10
2019-04-26T21:14:32.829Z,19.52
2019-04-26T21:17:03.655Z,20.00
2019-04-26T21:19:34.388Z,19.25
2019-04-26T21:22:05.153Z,19.30
2019-04-26T21:24:37.473Z,19.70
2019-04-26T21:27:09.694Z,19.07
2019-04-26T21:29:59.253Z,18.92
2019-04-26T21:32:33.273Z,19.17
2019-04-26T21:35:05.919Z,19.57
2019-04-26T21:37:38.175Z,19.55
2019-04-26T21:40:10.841Z,20.35
2019-04-26T21:42:43.459Z,18.55
2019-04-26T21:45:14.130Z,18.90
2019-04-26T21:47:45.028Z,18.65
2019-04-26T21:50:16.893Z,18.17
2019-04-26T21:52:49.710Z,16.97
2019-04-26T21:55:20.515Z,17.37
2019-04-26T21:57:51.188Z,17.45
2019-04-26T22:00:27.156Z,17.82
2019-04-26T22:02:57.856Z,17.27
2019-04-26T22:05:28.875Z,17.30
2019-04-26T22:07:59.782Z,17.17
2019-04-26T22:10:32.925Z,17.92
2019-04-26T22:13:06.387Z,18.45
2019-04-26T22:15:54.770Z,17.82
2019-04-26T22:18:30.094Z,20.88
2019-04-26T22:21:14.507Z,19.95
2019-04-26T22:23:56.139Z,18.37
2019-04-26T22:26:26.975Z,19.57
2019-04-26T22:29:00.141Z,18.45
2019-04-26T22:31:29.938Z,18.73
2019-04-26T22:34:01.363Z,19.55
2019-04-26T22:36:35.563Z,19.00
2019-04-26T22:39:07.748Z,19.25
2019-04-26T22:42:02.715Z,18.52
2019-04-26T22:44:36.076Z,20.00
2019-04-26T22:47:14.421Z,19.92
2019-04-26T22:49:45.440Z,18.90
2019-04-26T22:52:16.639Z,19.42
2019-04-26T22:54:47.488Z,19.07
2019-04-26T22:57:18.620Z,19.67
2019-04-26T22:59:50.473Z,20.08
2019-04-26T23:02:26.202Z,20.02
2019-04-26T23:04:56.089Z,20.15
2019-04-26T23:07:26.738Z,19.70
2019-04-26T23:09:57.553Z,19.67
2019-04-26T23:12:46.395Z,20.25
2019-04-26T23:15:18.601Z,19.82
2019-04-26T23:18:03.740Z,19.98
2019-04-26T23:20:34.274Z,22.52
2019-04-26T23:23:08.544Z,22.00
2019-04-26T23:25:38.467Z,21.35
2019-04-26T23:28:09.152Z,21.00
2019-04-26T23:30:40.003Z,20.15
2019-04-26T23:33:10.711Z,19.85
2019-04-26T23:35:43.872Z,20.52
2019-04-26T23:38:13.634Z,21.37
2019-04-26T23:40:44.312Z,21.82
2019-04-26T23:43:15.038Z,19.85
2019-04-26T23:45:48.353Z,21.87
2019-04-26T23:48:18.591Z,21.93
2019-04-26T23:50:50.983Z,23.07
2019-04-26T23:53:21.650Z,23.25
2019-04-26T23:55:52.387Z,21.73
2019-04-26T23:58:23.276Z,26.95
